• Join FlightAware (Why Join?)
  • Login
  • US Flag 
04:51AM EDT


 

Airport Tracker/Info


-or-


 

Live Flight TrackerFlight Track Log ✈ SSX917 ✈ 05-Mar-2011 ✈ KDEN - KMCI

Flight Track Log - Related Links

Times and Time Zones

All times are in EST time to prevent confusion due to time zone crossing. See the SSX917 flight status page for this flight to view local times or setup timezone preferences in your user account.

Time Position Orientation Groundspeed Altitude Reporting Facility
EST Latitude Longitude Course Direction KTS MPH feet Rate Location/Type
09:21PM 39.8025 -104.6200 40° Northeast -1  Level FlightAware Approximate
09:22PM 39.8833 -104.5330 90° East 238 274 7,700 4,980 Climbing Denver TRACON
09:23PM 39.8833 -104.4330 101° East 274 315 9,000 1,440 Climbing Denver TRACON
09:24PM 39.8667 -104.3170 79° East 294 338 10,800 1,440 Climbing Denver TRACON
09:24PM 39.8747 -104.2620 87° East 303 349 11,500 1,320 Climbing Denver Center
09:25PM 39.8789 -104.1490 89° East 341 392 12,900 1,140 Climbing Denver Center
09:26PM 39.8806 -104.0240 89° East 341 392 13,800 1,320 Climbing Denver Center
09:27PM 39.8817 -103.8920 88° East 341 392 15,600 1,620 Climbing Denver Center
09:28PM 39.8853 -103.7750 88° East 335 386 17,100 1,500 Climbing Denver Center
09:29PM 39.8889 -103.6590 84° East 325 374 18,700 1,500 Climbing Denver Center
09:30PM 39.8983 -103.5440 85° East 320 368 20,200 1,380 Climbing Denver Center
09:31PM 39.9058 -103.4310 85° East 315 362 21,500 1,200 Climbing Denver Center
09:32PM 39.9133 -103.3190 84° East 310 357 22,600 1,020 Climbing Denver Center
09:33PM 39.9225 -103.1990 84° East 319 367 23,600 900 Climbing Denver Center
09:34PM 39.9317 -103.0850 86° East 319 367 24,400 660 Climbing Denver Center
09:35PM 39.9369 -102.9790 84° East 319 367 25,000 300 Climbing Denver Center
09:36PM 39.9475 -102.8520 86° East 340 391 25,000  Level Denver Center
09:37PM 39.9556 -102.7130 85° East 361 415 25,000  Level Denver Center
09:38PM 39.9650 -102.5610 85° East 381 438 25,000  Level Denver Center
09:39PM 39.9747 -102.4160 82° East 391 450 25,000  Level Denver Center
09:40PM 39.9889 -102.2910 81° East 391 450 25,000  Level Denver Center
09:41PM 40.0067 -102.1510 79° East 384 442 25,000  Level Denver Center
09:42PM 40.0283 -102.0040 81° East 378 435 25,000  Level Denver Center
09:43PM 40.0439 -101.8720 80° East 373 429 25,000  Level Denver Center
09:44PM 40.0600 -101.7520 80° East 373 429 25,000  Level Denver Center
09:45PM 40.0789 -101.6070 81° East 373 429 25,000  Level Denver Center
09:46PM 40.0961 -101.4720 81° East 373 429 25,000  Level Denver Center
09:47PM 40.1131 -101.3350 79° East 373 429 25,000  Level Denver Center
09:48PM 40.1306 -101.2140 81° East 373 429 25,000  Level Denver Center
09:49PM 40.1486 -101.0630 80° East 373 429 25,000  Level Denver Center
09:50PM 40.1669 -100.9260 81° East 378 435 25,000  Level Denver Center
09:51PM 40.1817 -100.8000 82° East 378 435 25,000  Level Denver Center
09:52PM 40.1975 -100.6600 85° East 378 435 25,000  Level Denver Center
09:53PM 40.2083 -100.5040 89° East 389 448 25,000  Level Denver Center
09:54PM 40.2094 -100.3650 89° East 389 448 25,000  Level Denver Center
09:55PM 40.2111 -100.2390 89° East 384 442 25,000  Level Denver Center
09:56PM 40.2131 -100.0840 90° East 384 442 25,000  Level Denver Center
09:57PM 40.2133 -99.9425 88° East 384 442 25,000  Level Denver Center
09:58PM 40.2167 -99.8169 89° East 384 442 25,000  Level Denver Center
09:59PM 40.2189 -99.6781 91° East 384 442 25,000  Level Denver Center
10:00PM 40.2175 -99.5039 89° East 390 449 25,000  Level Minneapolis Center
10:01PM 40.2192 -99.3628 88° East 390 449 25,000  Level Minneapolis Center
10:02PM 40.2225 -99.2219 90° East 385 443 25,000  Level Minneapolis Center
10:03PM 40.2217 -99.0808 90° East 385 443 25,000  Level Minneapolis Center
10:04PM 40.2225 -98.9425 90° East 385 443 25,000  Level Minneapolis Center
10:05PM 40.2233 -98.8014 90° East 385 443 25,000  Level Minneapolis Center
10:06PM 40.2239 -98.6603 90° East 385 443 25,000  Level Minneapolis Center
10:07PM 40.2244 -98.5192 90° East 385 443 25,000  Level Minneapolis Center
10:08PM 40.2244 -98.3836 90° East 385 443 25,000  Level Minneapolis Center
10:09PM 40.2247 -98.2397 90° East 385 443 25,000  Level Minneapolis Center
10:10PM 40.2244 -98.1014 90° East 385 443 25,000  Level Minneapolis Center
10:11PM 40.2242 -97.9628 91° East 385 443 25,000  Level Minneapolis Center
10:12PM 40.2214 -97.8244 89° East 385 443 25,000  Level Minneapolis Center
10:13PM 40.2228 -97.6861 90° East 385 443 25,000  Level Minneapolis Center
10:14PM 40.2219 -97.5450 92° East 385 443 25,000  Level Minneapolis Center
10:15PM 40.2189 -97.4064 94° East 385 443 25,000  Level Minneapolis Center
10:16PM 40.2128 -97.2839 91° East 385 443 25,000  Level Minneapolis Center
10:17PM 40.2114 -97.1481 91° East 385 443 25,000  Level Minneapolis Center
10:18PM 40.2094 -97.0125 90° East 385 443 25,000 -60 Level Minneapolis Center
10:19PM 40.2097 -96.8769 92° East 385 443 24,900 -600 Descending Minneapolis Center
10:20PM 40.2058 -96.7356 103° East 385 443 23,900 -960 Descending Minneapolis Center
10:21PM 40.1828 -96.6044 110° East 380 437 23,000 -1,020 Descending Minneapolis Center
10:24PM 40.1008 -96.3097 110° East 379 436 20,700 -1,020 Descending Kansas City Center
10:25PM 40.0653 -96.1814 110° East 379 436 19,700 -900 Descending Kansas City Center
10:26PM 40.0233 -96.0342 110° East 386 444 19,000 -360 Descending Kansas City Center
10:27PM 39.9875 -95.9086 111° Southeast 381 438 19,000  Level Kansas City Center
10:28PM 39.9514 -95.7833 109° East 381 438 19,000  Level Kansas City Center
10:29PM 39.9192 -95.6639 111° Southeast 375 432 19,000  Level Kansas City Center
10:30PM 39.8789 -95.5253 117° Southeast 375 432 19,000 -540 Level Kansas City Center
10:31PM 39.8319 -95.4031 142° Southeast 375 432 18,000 -1,380 Descending Kansas City Center
10:32PM 39.7492 -95.3183 141° Southeast 370 426 16,300 -1,740 Descending Kansas City Center
10:33PM 39.6789 -95.2447 142° Southeast 368 423 14,600 -1,800 Descending Kansas City Center
10:34PM 39.5981 -95.1631 139° Southeast 368 423 12,800 -1,320 Descending Kansas City Center
10:35PM 39.5192 -95.0736 143° Southeast 355 409 12,000 -660 Descending Kansas City Center
10:36PM 39.4425 -94.9978 141° Southeast 349 402 11,500 -1,020 Descending Kansas City Center
10:37PM 39.3719 -94.9247 142° Southeast 337 388 10,000 -1,500 Descending Kansas City Center
10:38PM 39.3158 -94.8681 158° South 304 350 8,600 -1,320 Descending Kansas City Center
10:39PM 39.2575 -94.8383 151° Southeast 263 303 7,400 -2,220 Descending Kansas City Center
10:40PM 39.2117 -94.8061 79° East 190 219 4,200 -2,400 Descending Kansas City Center
10:41PM 39.2203 -94.7469 40° Northeast 150 173 2,600 -1,260 Descending Kansas City Center
10:42PM 39.2494 -94.7150 North 131 151 1,700 -780 Descending Kansas City Center
10:43PM 39.2786 -94.7097 22° Northeast 117 135 1,100 -360 Descending Kansas City Center
10:44PM 39.3100 -94.6936 22° Northeast 117 135 1,000 -120 Descending Kansas City Center